Time,TemperatureF,DewpointF,PressureIn,WindDirection,WindDirectionDegrees,WindSpeedMPH,WindSpeedGustMPH,Humidity,HourlyPrecipIn,Conditions,Clouds,dailyrainin,SoftwareType,DateUTC
2013-01-13 00:02:00,28.0,26.0,30.45,NE,38,0.0,-999.0,93,-99.99,,,-99.99,,2013-01-13 08:02:00,
2013-01-13 00:11:00,28.0,26.0,30.45,NE,38,0.0,-999.0,93,-99.99,,,-99.99,,2013-01-13 08:11:00,
2013-01-13 00:22:00,28.0,26.0,30.45,NE,38,0.0,-999.0,93,-99.99,,,-99.99,,2013-01-13 08:22:00,
2013-01-13 00:32:00,28.0,26.0,30.45,NE,38,0.0,-999.0,93,-99.99,,,-99.99,,2013-01-13 08:32:00,
2013-01-13 00:42:00,28.0,26.0,30.45,NE,38,0.0,-999.0,93,-99.99,,,-99.99,,2013-01-13 08:42:00,
2013-01-13 00:52:00,28.0,26.0,30.45,NE,38,0.0,-999.0,93,-99.99,,,-99.99,,2013-01-13 08:52:00,
2013-01-13 01:02:00,28.0,26.0,30.45,NE,38,0.0,-999.0,93,-99.99,,,-99.99,,2013-01-13 09:02:00,
2013-01-13 01:11:00,27.0,25.0,30.45,NE,38,0.0,-999.0,93,-99.99,,,-99.99,,2013-01-13 09:11:00,
2013-01-13 01:22:00,27.0,25.0,30.45,NE,38,0.0,-999.0,93,-99.99,,,-99.99,,2013-01-13 09:22:00,
2013-01-13 01:32:00,27.0,26.0,30.45,NE,38,0.0,-999.0,94,-99.99,,,-99.99,,2013-01-13 09:32:00,
2013-01-13 01:42:00,27.0,26.0,30.45,NE,38,0.0,-999.0,94,-99.99,,,-99.99,,2013-01-13 09:42:00,
2013-01-13 01:52:00,27.0,26.0,30.45,NE,38,0.0,-999.0,94,-99.99,,,-99.99,,2013-01-13 09:52:00,
2013-01-13 02:02:00,27.0,26.0,30.45,NE,38,0.0,-999.0,94,-99.99,,,-99.99,,2013-01-13 10:02:00,
2013-01-13 02:11:00,27.0,26.0,30.45,NE,38,0.0,-999.0,94,-99.99,,,-99.99,,2013-01-13 10:11:00,
2013-01-13 02:22:00,27.0,26.0,30.46,NE,38,0.0,-999.0,94,-99.99,,,-99.99,,2013-01-13 10:22:00,
2013-01-13 02:32:00,27.0,26.0,30.46,NE,38,0.0,-999.0,94,-99.99,,,-99.99,,2013-01-13 10:32:00,
2013-01-13 02:42:00,27.0,26.0,30.46,NE,38,0.0,-999.0,94,-99.99,,,-99.99,,2013-01-13 10:42:00,
2013-01-13 02:52:00,26.0,25.0,30.46,NE,38,0.0,-999.0,94,-99.99,,,-99.99,,2013-01-13 10:52:00,
2013-01-13 03:02:00,26.0,25.0,30.46,NE,38,0.0,-999.0,94,-99.99,,,-99.99,,2013-01-13 11:02:00,
2013-01-13 03:11:00,26.0,25.0,30.46,NE,38,0.0,-999.0,94,-99.99,,,-99.99,,2013-01-13 11:11:00,
2013-01-13 03:22:00,26.0,25.0,30.46,NE,38,0.0,-999.0,94,-99.99,,,-99.99,,2013-01-13 11:22:00,
2013-01-13 03:32:00,27.0,26.0,30.46,NE,38,0.0,-999.0,94,-99.99,,,-99.99,,2013-01-13 11:32:00,
2013-01-13 03:42:00,27.0,26.0,30.46,NE,38,0.0,-999.0,94,-99.99,,,-99.99,,2013-01-13 11:42:00,
2013-01-13 03:52:00,27.0,26.0,30.46,NE,38,0.0,-999.0,94,-99.99,,,-99.99,,2013-01-13 11:52:00,
2013-01-13 04:02:00,27.0,26.0,30.46,NE,38,0.0,-999.0,94,-99.99,,,-99.99,,2013-01-13 12:02:00,
2013-01-13 04:12:00,27.0,26.0,30.46,NE,38,0.0,-999.0,94,-99.99,,,-99.99,,2013-01-13 12:12:00,
2013-01-13 04:22:00,27.0,26.0,30.45,NE,38,0.0,-999.0,95,-99.99,,,-99.99,,2013-01-13 12:22:00,
2013-01-13 04:32:00,27.0,26.0,30.45,NE,38,0.0,-999.0,95,-99.99,,,-99.99,,2013-01-13 12:32:00,
2013-01-13 04:42:00,27.0,26.0,30.45,NE,38,0.0,-999.0,95,-99.99,,,-99.99,,2013-01-13 12:42:00,
2013-01-13 04:53:00,27.0,26.0,30.45,NE,38,0.0,-999.0,95,-99.99,,,-99.99,,2013-01-13 12:53:00,
2013-01-13 05:02:00,27.0,26.0,30.45,NE,38,0.0,-999.0,95,-99.99,,,-99.99,,2013-01-13 13:02:00,
2013-01-13 05:12:00,27.0,26.0,30.45,NE,38,0.0,-999.0,95,-99.99,,,-99.99,,2013-01-13 13:12:00,
2013-01-13 05:22:00,27.0,26.0,30.45,NE,38,0.0,-999.0,95,-99.99,,,-99.99,,2013-01-13 13:22:00,
2013-01-13 05:32:00,27.0,26.0,30.45,NE,38,0.0,-999.0,95,-99.99,,,-99.99,,2013-01-13 13:32:00,
2013-01-13 05:42:00,27.0,26.0,30.45,NE,38,0.0,-999.0,95,-99.99,,,-99.99,,2013-01-13 13:42:00,
2013-01-13 05:53:00,27.0,26.0,30.45,NE,38,0.0,-999.0,95,-99.99,,,-99.99,,2013-01-13 13:53:00,
2013-01-13 06:02:00,28.0,27.0,30.45,NE,38,0.0,-999.0,95,-99.99,,,-99.99,,2013-01-13 14:02:00,
2013-01-13 06:12:00,28.0,27.0,30.45,NE,38,0.0,-999.0,95,-99.99,,,-99.99,,2013-01-13 14:12:00,
2013-01-13 06:22:00,28.0,27.0,30.45,NE,38,0.0,-999.0,96,-99.99,,,-99.99,,2013-01-13 14:22:00,
2013-01-13 06:32:00,28.0,27.0,30.46,NE,38,0.0,-999.0,96,-99.99,,,-99.99,,2013-01-13 14:32:00,
2013-01-13 06:42:00,28.0,27.0,30.46,NE,38,0.0,-999.0,96,-99.99,,,-99.99,,2013-01-13 14:42:00,
2013-01-13 06:53:00,28.0,27.0,30.46,NE,38,0.0,-999.0,96,-99.99,,,-99.99,,2013-01-13 14:53:00,
2013-01-13 07:02:00,28.0,27.0,30.46,NE,38,0.0,-999.0,96,-99.99,,,-99.99,,2013-01-13 15:02:00,
2013-01-13 07:12:00,28.0,27.0,30.46,NE,38,0.0,-999.0,96,-99.99,,,-99.99,,2013-01-13 15:12:00,
2013-01-13 07:22:00,28.0,27.0,30.47,NE,38,0.0,-999.0,96,-99.99,,,-99.99,,2013-01-13 15:22:00,
2013-01-13 07:33:00,28.0,27.0,30.48,NE,38,0.0,-999.0,96,-99.99,,,-99.99,,2013-01-13 15:33:00,
2013-01-13 07:42:00,28.0,27.0,30.48,NE,38,0.0,-999.0,96,-99.99,,,-99.99,,2013-01-13 15:42:00,
2013-01-13 07:52:00,28.0,27.0,30.48,NE,38,0.0,-999.0,96,-99.99,,,-99.99,,2013-01-13 15:52:00,
2013-01-13 08:02:00,27.0,26.0,30.48,NE,38,0.0,-999.0,96,-99.99,,,-99.99,,2013-01-13 16:02:00,
2013-01-13 08:22:00,27.0,26.0,30.48,NE,38,0.0,-999.0,96,-99.99,,,-99.99,,2013-01-13 16:22:00,
2013-01-13 08:31:00,27.0,26.0,30.49,NE,38,0.0,-999.0,96,-99.99,,,-99.99,,2013-01-13 16:31:00,
2013-01-13 08:33:00,27.0,26.0,30.48,NE,38,0.0,-999.0,96,-99.99,,,-99.99,,2013-01-13 16:33:00,
2013-01-13 08:42:00,27.0,26.0,30.48,NE,38,0.0,-999.0,96,-99.99,,,-99.99,,2013-01-13 16:42:00,
2013-01-13 08:53:00,27.0,26.0,30.49,NE,38,0.0,-999.0,96,-99.99,,,-99.99,,2013-01-13 16:53:00,
2013-01-13 09:02:00,27.0,26.0,30.49,NE,38,0.0,-999.0,96,-99.99,,,-99.99,,2013-01-13 17:02:00,
2013-01-13 09:12:00,27.0,26.0,30.49,NE,38,0.0,-999.0,96,-99.99,,,-99.99,,2013-01-13 17:12:00,
2013-01-13 09:22:00,27.0,26.0,30.49,NE,38,0.0,-999.0,96,-99.99,,,-99.99,,2013-01-13 17:22:00,
2013-01-13 10:23:00,30.0,29.0,30.49,NE,38,0.0,-999.0,96,-99.99,,,-99.99,,2013-01-13 18:23:00,
2013-01-13 10:33:00,30.0,29.0,30.49,NE,38,0.0,-999.0,96,-99.99,,,-99.99,,2013-01-13 18:33:00,
2013-01-13 10:43:00,30.0,29.0,30.49,NE,38,0.0,-999.0,96,-99.99,,,-99.99,,2013-01-13 18:43:00,
2013-01-13 10:53:00,31.0,30.0,30.50,ESE,105,0.0,-999.0,95,-99.99,,,-99.99,,2013-01-13 18:53:00,
2013-01-13 11:02:00,32.0,31.0,30.50,ESE,105,0.0,-999.0,95,-99.99,,,-99.99,,2013-01-13 19:02:00,
2013-01-13 11:12:00,32.0,31.0,30.50,ESE,105,0.0,-999.0,95,-99.99,,,-99.99,,2013-01-13 19:12:00,
2013-01-13 11:22:00,31.0,29.0,30.49,SSE,159,0.0,-999.0,93,-99.99,,,-99.99,,2013-01-13 19:22:00,
2013-01-13 11:32:00,32.0,30.0,30.49,SSE,159,0.0,-999.0,93,-99.99,,,-99.99,,2013-01-13 19:32:00,
2013-01-13 11:42:00,32.0,30.0,30.49,SSE,159,0.0,-999.0,93,-99.99,,,-99.99,,2013-01-13 19:42:00,
2013-01-13 11:53:00,32.0,29.0,30.47,NW,315,0.0,-999.0,88,-99.99,,,-99.99,,2013-01-13 19:53:00,
2013-01-13 12:02:00,33.0,30.0,30.47,NW,315,0.0,-999.0,87,-99.99,,,-99.99,,2013-01-13 20:02:00,
2013-01-13 12:11:00,33.0,30.0,30.47,NW,315,0.0,-999.0,87,-99.99,,,-99.99,,2013-01-13 20:11:00,
2013-01-13 12:22:00,33.0,29.0,30.47,NW,315,0.0,-999.0,85,-99.99,,,-99.99,,2013-01-13 20:22:00,
2013-01-13 12:32:00,34.0,29.0,30.47,NW,315,0.0,-999.0,82,-99.99,,,-99.99,,2013-01-13 20:32:00,
2013-01-13 12:43:00,34.0,29.0,30.47,NW,315,0.0,-999.0,82,-99.99,,,-99.99,,2013-01-13 20:43:00,
2013-01-13 12:53:00,34.0,30.0,30.47,North,5,0.0,-999.0,85,-99.99,,,-99.99,,2013-01-13 20:53:00,
2013-01-13 13:02:00,34.0,30.0,30.47,NE,36,0.0,-999.0,86,-99.99,,,-99.99,,2013-01-13 21:02:00,
2013-01-13 13:12:00,34.0,30.0,30.47,NE,36,0.0,-999.0,86,-99.99,,,-99.99,,2013-01-13 21:12:00,
2013-01-13 13:22:00,34.0,29.0,30.46,North,360,1.0,-999.0,83,-99.99,,,-99.99,,2013-01-13 21:22:00,
2013-01-13 13:32:00,34.0,29.0,30.46,NNE,19,1.0,-999.0,83,-99.99,,,-99.99,,2013-01-13 21:32:00,
2013-01-13 13:42:00,34.0,29.0,30.46,NNE,19,1.0,-999.0,83,-99.99,,,-99.99,,2013-01-13 21:42:00,
2013-01-13 13:53:00,34.0,29.0,30.46,NE,36,0.0,-999.0,82,-99.99,,,-99.99,,2013-01-13 21:53:00,
2013-01-13 14:02:00,35.0,30.0,30.46,NNW,328,1.0,-999.0,81,-99.99,,,-99.99,,2013-01-13 22:02:00,
2013-01-13 14:12:00,35.0,30.0,30.46,NNW,328,1.0,-999.0,81,-99.99,,,-99.99,,2013-01-13 22:12:00,
2013-01-13 14:22:00,35.0,30.0,30.46,NNE,27,0.0,-999.0,82,-99.99,,,-99.99,,2013-01-13 22:22:00,
2013-01-13 14:31:00,35.0,29.0,30.47,NNE,27,0.0,-999.0,80,-99.99,,,-99.99,,2013-01-13 22:31:00,
2013-01-13 14:32:00,35.0,29.0,30.47,NNE,27,0.0,-999.0,79,-99.99,,,-99.99,,2013-01-13 22:32:00,
2013-01-13 14:42:00,35.0,29.0,30.47,NNE,27,0.0,-999.0,79,-99.99,,,-99.99,,2013-01-13 22:42:00,
2013-01-13 14:52:00,35.0,29.0,30.47,NNE,27,0.0,-999.0,80,-99.99,,,-99.99,,2013-01-13 22:52:00,
2013-01-13 15:02:00,35.0,29.0,30.47,NNE,27,0.0,-999.0,80,-99.99,,,-99.99,,2013-01-13 23:02:00,
2013-01-13 15:12:00,35.0,29.0,30.47,NNE,27,0.0,-999.0,80,-99.99,,,-99.99,,2013-01-13 23:12:00,
2013-01-13 15:22:00,35.0,29.0,30.47,NNE,27,0.0,-999.0,80,-99.99,,,-99.99,,2013-01-13 23:22:00,
2013-01-13 19:02:00,32.0,28.0,30.47,NNE,27,0.0,-999.0,84,-99.99,,,-99.99,,2013-01-14 03:02:00,
2013-01-13 19:12:00,32.0,28.0,30.47,NNE,27,0.0,-999.0,84,-99.99,,,-99.99,,2013-01-14 03:12:00,
2013-01-13 19:22:00,32.0,28.0,30.46,NNE,27,0.0,-999.0,86,-99.99,,,-99.99,,2013-01-14 03:22:00,
2013-01-13 19:32:00,32.0,29.0,30.46,NNE,27,0.0,-999.0,87,-99.99,,,-99.99,,2013-01-14 03:32:00,
2013-01-13 19:42:00,32.0,29.0,30.46,NNE,27,0.0,-999.0,87,-99.99,,,-99.99,,2013-01-14 03:42:00,
2013-01-13 19:53:00,32.0,29.0,30.47,NNE,27,0.0,-999.0,87,-99.99,,,-99.99,,2013-01-14 03:53:00,
2013-01-13 20:02:00,31.0,28.0,30.49,NNE,27,0.0,-999.0,88,-99.99,,,-99.99,,2013-01-14 04:02:00,
2013-01-13 20:11:00,31.0,28.0,30.49,NNE,27,0.0,-999.0,88,-99.99,,,-99.99,,2013-01-14 04:11:00,
2013-01-13 20:22:00,31.0,28.0,30.48,NNE,27,0.0,-999.0,88,-99.99,,,-99.99,,2013-01-14 04:22:00,
2013-01-13 20:32:00,32.0,29.0,30.48,NNE,27,0.0,-999.0,89,-99.99,,,-99.99,,2013-01-14 04:32:00,
2013-01-13 20:42:00,32.0,29.0,30.48,NNE,27,0.0,-999.0,89,-99.99,,,-99.99,,2013-01-14 04:42:00,
2013-01-13 20:53:00,32.0,29.0,30.49,NNE,27,0.0,-999.0,90,-99.99,,,-99.99,,2013-01-14 04:53:00,
2013-01-13 21:03:00,32.0,29.0,30.48,NNE,27,0.0,-999.0,90,-99.99,,,-99.99,,2013-01-14 05:03:00,
2013-01-13 21:12:00,32.0,29.0,30.48,NNE,27,0.0,-999.0,90,-99.99,,,-99.99,,2013-01-14 05:12:00,
2013-01-13 21:22:00,32.0,29.0,30.48,NNE,27,0.0,-999.0,90,-99.99,,,-99.99,,2013-01-14 05:22:00,
2013-01-13 21:32:00,32.0,29.0,30.48,NNE,27,0.0,-999.0,90,-99.99,,,-99.99,,2013-01-14 05:32:00,
2013-01-13 21:42:00,32.0,29.0,30.48,NNE,27,0.0,-999.0,90,-99.99,,,-99.99,,2013-01-14 05:42:00,
2013-01-13 21:52:00,32.0,29.0,30.48,NNE,27,0.0,-999.0,90,-99.99,,,-99.99,,2013-01-14 05:52:00,
2013-01-13 22:02:00,32.0,29.0,30.49,NNE,27,0.0,-999.0,90,-99.99,,,-99.99,,2013-01-14 06:02:00,
2013-01-13 22:11:00,32.0,29.0,30.49,NNE,27,0.0,-999.0,90,-99.99,,,-99.99,,2013-01-14 06:11:00,
2013-01-13 22:22:00,32.0,29.0,30.50,NNE,27,0.0,-999.0,90,-99.99,,,-99.99,,2013-01-14 06:22:00,
2013-01-13 22:32:00,32.0,29.0,30.50,NNE,27,0.0,-999.0,90,-99.99,,,-99.99,,2013-01-14 06:32:00,
2013-01-13 22:42:00,32.0,29.0,30.50,NNE,27,0.0,-999.0,90,-99.99,,,-99.99,,2013-01-14 06:42:00,
2013-01-13 22:52:00,33.0,30.0,30.50,NNE,27,0.0,-999.0,90,-99.99,,,-99.99,,2013-01-14 06:52:00,
2013-01-13 23:01:00,33.0,30.0,30.50,NNE,27,0.0,-999.0,90,-99.99,,,-99.99,,2013-01-14 07:01:00,
2013-01-13 23:11:00,33.0,30.0,30.50,NNE,27,0.0,-999.0,90,-99.99,,,-99.99,,2013-01-14 07:11:00,
2013-01-13 23:22:00,33.0,30.0,30.50,NNE,27,0.0,-999.0,90,-99.99,,,-99.99,,2013-01-14 07:22:00,
2013-01-13 23:32:00,33.0,30.0,30.50,NNE,27,0.0,-999.0,90,-99.99,,,-99.99,,2013-01-14 07:32:00,
2013-01-13 23:42:00,33.0,30.0,30.50,NNE,27,0.0,-999.0,90,-99.99,,,-99.99,,2013-01-14 07:42:00,
2013-01-13 23:52:00,33.0,30.0,30.49,NNE,27,0.0,-999.0,90,-99.99,,,-99.99,,2013-01-14 07:52:00,